Time;durP1;ratioP1;P1;durP2;ratioP2;P2;SDS_P1;SDS_P2;PMS_P1;PMS_P2;Temp;Humidity;BMP_temperature;BMP_pressure;BME280_temperature;BME280_humidity;BME280_pressure;Samples;Min_cycle;Max_cycle;Signal;HPM_P1;HPM_P2
2023/03/28 00:01:53;;;;;;;6.07;2.03;;;6.60;64.90;;;;;;5097636;28;20024;-63
2023/03/28 00:04:21;;;;;;;9.48;2.25;;;6.60;65.00;;;;;;5095995;28;20063;-63
2023/03/28 00:06:52;;;;;;;9.52;2.22;;;6.60;65.00;;;;;;5095820;28;20032;-63
2023/03/28 00:09:19;;;;;;;9.27;2.17;;;6.60;65.10;;;;;;5093925;28;20085;-63
2023/03/28 00:11:45;;;;;;;8.77;2.67;;;6.50;65.10;;;;;;5102354;28;20031;-63
2023/03/28 00:14:13;;;;;;;8.18;2.20;;;6.50;65.20;;;;;;5099222;28;20032;-62
2023/03/28 00:16:44;;;;;;;6.63;2.27;;;6.50;65.30;;;;;;5086407;28;20357;-63
2023/03/28 00:19:17;;;;;;;9.55;2.45;;;6.50;65.40;;;;;;5083738;28;20044;-63
2023/03/28 00:21:45;;;;;;;9.15;2.30;;;6.50;65.50;;;;;;5093009;28;20043;-63
2023/03/28 00:24:13;;;;;;;11.35;2.40;;;6.50;65.60;;;;;;5086183;28;20020;-63
2023/03/28 00:26:41;;;;;;;7.50;2.40;;;6.40;65.60;;;;;;5088520;28;20044;-63
2023/03/28 00:29:10;;;;;;;10.10;2.70;;;6.40;65.70;;;;;;5079106;28;20028;-63
2023/03/28 00:31:38;;;;;;;11.63;2.90;;;6.40;65.70;;;;;;5099434;28;20072;-63
2023/03/28 00:34:05;;;;;;;7.28;2.08;;;6.40;65.80;;;;;;5080347;28;20078;-63
2023/03/28 00:36:32;;;;;;;7.35;2.53;;;6.40;65.90;;;;;;5097010;28;20015;-63
2023/03/28 00:39:00;;;;;;;7.60;2.90;;;6.40;65.90;;;;;;5092763;28;20035;-63
2023/03/28 00:41:31;;;;;;;7.60;2.58;;;6.40;66.00;;;;;;5097060;28;20032;-63
2023/03/28 00:43:57;;;;;;;8.15;2.70;;;6.40;66.10;;;;;;5096908;28;20133;-63
2023/03/28 00:46:40;;;;;;;8.70;3.00;;;6.40;66.10;;;;;;5095939;28;20047;-63
2023/03/28 00:49:14;;;;;;;8.17;2.77;;;6.40;66.20;;;;;;5092063;28;20032;-63
2023/03/28 00:52:01;;;;;;;6.95;2.33;;;6.40;66.20;;;;;;5101741;28;20028;-63
2023/03/28 00:54:32;;;;;;;8.55;2.17;;;6.40;66.20;;;;;;5094403;28;20458;-63
2023/03/28 00:57:01;;;;;;;11.27;2.73;;;6.30;66.30;;;;;;5078114;28;20582;-62
2023/03/28 00:59:31;;;;;;;7.22;2.10;;;6.20;66.40;;;;;;5092507;28;20039;-63
2023/03/28 01:01:57;;;;;;;8.70;2.60;;;6.20;66.40;;;;;;5095275;28;20032;-63
2023/03/28 01:04:32;;;;;;;7.10;2.17;;;6.20;66.50;;;;;;5101957;28;20355;-64
2023/03/28 01:06:58;;;;;;;7.80;2.50;;;6.20;66.50;;;;;;5090172;28;20020;-63
2023/03/28 01:09:25;;;;;;;7.75;2.55;;;6.20;66.60;;;;;;5092793;28;20356;-63
2023/03/28 01:11:55;;;;;;;8.32;2.72;;;6.20;67.00;;;;;;5099022;28;20020;-63
2023/03/28 01:14:23;;;;;;;6.63;2.53;;;6.20;66.70;;;;;;5096260;28;20343;-63
2023/03/28 01:16:51;;;;;;;10.80;3.30;;;6.20;66.80;;;;;;5095425;28;20323;-63
2023/03/28 01:19:57;;;;;;;8.00;2.20;;;6.20;66.80;;;;;;5099339;28;20036;-64
2023/03/28 01:22:25;;;;;;;6.57;2.37;;;6.20;66.80;;;;;;5080969;28;20059;-63
2023/03/28 01:25:34;;;;;;;7.67;2.57;;;6.20;66.90;;;;;;5082135;28;20107;-63
2023/03/28 01:28:21;;;;;;;9.57;3.00;;;6.20;66.90;;;;;;5086503;28;20028;-63
2023/03/28 01:31:17;;;;;;;8.90;2.67;;;6.10;67.00;;;;;;5095625;28;20111;-63
2023/03/28 01:34:28;;;;;;;7.93;2.30;;;6.10;67.10;;;;;;5086588;28;20373;-64
2023/03/28 01:37:02;;;;;;;6.80;2.47;;;6.10;67.10;;;;;;5097968;28;20016;-63
2023/03/28 01:40:05;;;;;;;8.43;3.40;;;6.00;67.10;;;;;;5100064;28;20122;-63
2023/03/28 01:43:01;;;;;;;8.53;2.70;;;6.00;67.20;;;;;;5096320;28;20042;-63
2023/03/28 01:45:34;;;;;;;8.97;2.70;;;6.00;67.20;;;;;;5100785;28;20040;-63
2023/03/28 01:48:04;;;;;;;9.37;3.10;;;5.90;67.30;;;;;;5102459;28;20062;-64
2023/03/28 01:50:47;;;;;;;8.67;2.80;;;6.00;67.50;;;;;;5100741;28;20028;-64
2023/03/28 01:53:35;;;;;;;9.50;2.97;;;6.00;67.50;;;;;;5084171;28;20064;-64
2023/03/28 01:56:10;;;;;;;9.20;3.10;;;5.90;67.60;;;;;;5095770;28;20070;-63
2023/03/28 01:58:49;;;;;;;7.10;3.03;;;5.90;67.60;;;;;;5104306;28;20096;-63
2023/03/28 02:01:29;;;;;;;5.77;2.20;;;5.90;67.60;;;;;;5090444;28;20070;-64
2023/03/28 02:04:01;;;;;;;6.63;2.40;;;5.90;67.60;;;;;;5083232;28;20031;-63
2023/03/28 02:06:37;;;;;;;8.57;2.53;;;5.90;67.70;;;;;;5081997;28;20016;-63
2023/03/28 02:09:08;;;;;;;8.60;2.97;;;6.00;67.80;;;;;;5074712;28;20029;-63
2023/03/28 02:12:15;;;;;;;8.53;2.30;;;5.90;67.70;;;;;;5093065;28;20112;-63
2023/03/28 02:15:04;;;;;;;8.87;2.83;;;5.90;67.80;;;;;;5082525;28;20036;-64
2023/03/28 02:17:59;;;;;;;8.47;2.50;;;5.90;67.80;;;;;;5092691;28;20464;-63
2023/03/28 02:21:00;;;;;;;7.93;2.30;;;5.90;67.90;;;;;;5092992;28;20210;-63
2023/03/28 02:23:49;;;;;;;5.83;2.17;;;5.80;67.80;;;;;;5087281;28;20422;-64
2023/03/28 02:26:36;;;;;;;7.73;2.83;;;5.80;67.80;;;;;;5082030;28;20056;-63
2023/03/28 02:29:17;;;;;;;7.07;2.83;;;5.80;67.80;;;;;;5092657;28;20028;-64
2023/03/28 02:31:48;;;;;;;6.32;2.53;;;5.80;67.90;;;;;;5100783;28;20077;-64
2023/03/28 02:34:14;;;;;;;8.40;2.97;;;5.80;67.90;;;;;;5098279;28;20055;-63
2023/03/28 02:36:56;;;;;;;8.60;3.03;;;5.70;67.90;;;;;;5094623;28;20020;-63
2023/03/28 02:39:34;;;;;;;7.73;2.50;;;5.70;67.90;;;;;;5098641;28;20032;-64
2023/03/28 02:42:18;;;;;;;8.18;2.97;;;5.70;68.00;;;;;;5101840;28;20384;-63
2023/03/28 02:45:14;;;;;;;6.70;2.37;;;5.70;68.00;;;;;;5098647;28;20149;-63
2023/03/28 02:48:04;;;;;;;8.57;2.60;;;5.70;68.00;;;;;;5082595;28;20538;-63
2023/03/28 02:50:47;;;;;;;8.00;2.53;;;5.70;68.00;;;;;;5095272;28;20046;-63
2023/03/28 02:53:25;;;;;;;9.53;3.23;;;5.70;68.10;;;;;;5096449;28;20028;-63
2023/03/28 02:56:20;;;;;;;6.43;2.80;;;5.70;68.10;;;;;;5086533;28;20031;-63
2023/03/28 02:59:46;;;;;;;9.20;2.73;;;5.70;68.20;;;;;;5103154;28;20036;-63
2023/03/28 03:02:19;;;;;;;12.07;4.03;;;5.60;68.10;;;;;;5089316;28;20111;-63
2023/03/28 03:04:45;;;;;;;9.57;3.13;;;5.60;68.80;;;;;;5102251;28;20053;-63
2023/03/28 03:07:12;;;;;;;8.03;2.77;;;5.60;68.10;;;;;;5094359;28;20121;-63
2023/03/28 03:09:39;;;;;;;9.97;3.00;;;5.60;68.20;;;;;;5105632;28;20349;-63
2023/03/28 03:12:06;;;;;;;7.63;3.03;;;5.60;68.20;;;;;;5096266;28;20029;-63
2023/03/28 03:14:33;;;;;;;7.43;2.60;;;5.60;68.30;;;;;;5097217;28;20026;-63
2023/03/28 03:17:19;;;;;;;9.37;2.87;;;5.60;68.30;;;;;;5094003;28;20055;-63
2023/03/28 03:19:45;;;;;;;8.00;2.57;;;5.60;68.30;;;;;;5102311;28;20464;-63
2023/03/28 03:22:11;;;;;;;6.37;2.83;;;5.60;68.30;;;;;;5098578;28;20020;-63
2023/03/28 03:24:38;;;;;;;9.37;3.27;;;5.60;68.30;;;;;;5079264;28;20036;-63
2023/03/28 03:27:04;;;;;;;7.47;3.00;;;5.60;68.40;;;;;;5093544;28;20032;-63
2023/03/28 03:29:30;;;;;;;7.00;2.73;;;5.60;68.40;;;;;;5094101;28;20042;-63
2023/03/28 03:31:56;;;;;;;10.27;2.87;;;5.60;68.40;;;;;;5092942;28;20048;-63
2023/03/28 03:34:23;;;;;;;9.63;3.33;;;5.60;68.50;;;;;;5095984;28;20087;-63
2023/03/28 03:36:53;;;;;;;8.68;2.97;;;5.60;68.60;;;;;;5100473;28;20013;-63
2023/03/28 03:39:20;;;;;;;9.03;3.07;;;5.60;68.60;;;;;;5096040;28;20032;-63
2023/03/28 03:41:47;;;;;;;11.80;3.10;;;5.60;68.60;;;;;;5078046;28;20016;-63
2023/03/28 03:44:13;;;;;;;12.80;3.40;;;5.60;68.70;;;;;;5091263;28;20050;-63
2023/03/28 03:46:39;;;;;;;6.90;2.90;;;5.50;68.60;;;;;;5093191;28;20051;-63
2023/03/28 03:49:07;;;;;;;8.40;3.43;;;5.50;68.70;;;;;;5094657;28;20036;-63
2023/03/28 03:51:33;;;;;;;8.93;3.37;;;5.50;68.70;;;;;;5098960;28;20020;-63
2023/03/28 03:53:59;;;;;;;7.57;3.37;;;5.50;68.70;;;;;;5090665;28;20024;-63
2023/03/28 03:56:43;;;;;;;10.63;3.50;;;5.50;68.80;;;;;;5091776;28;20016;-63
2023/03/28 03:59:11;;;;;;;8.57;3.30;;;5.50;68.90;;;;;;5108214;28;20032;-63
2023/03/28 04:01:38;;;;;;;9.57;3.50;;;5.50;68.90;;;;;;5101481;28;20457;-63
2023/03/28 04:04:22;;;;;;;8.43;3.50;;;5.50;69.00;;;;;;5089523;28;20081;-63
2023/03/28 04:07:08;;;;;;;7.37;3.23;;;5.50;69.00;;;;;;5078836;28;20039;-62
2023/03/28 04:09:34;;;;;;;9.37;3.13;;;5.50;69.00;;;;;;5092019;28;20024;-63
2023/03/28 04:12:05;;;;;;;9.63;3.40;;;5.40;69.00;;;;;;5090155;28;20028;-63
2023/03/28 04:14:35;;;;;;;8.77;3.60;;;5.40;69.10;;;;;;5085080;28;20115;-63
2023/03/28 04:17:40;;;;;;;11.43;3.40;;;5.40;69.20;;;;;;5104249;28;20036;-63
2023/03/28 04:20:19;;;;;;;7.73;2.80;;;5.40;69.20;;;;;;5076467;28;20028;-63
2023/03/28 04:23:19;;;;;;;7.37;3.23;;;5.40;69.30;;;;;;5073304;28;20072;-63
2023/03/28 04:25:48;;;;;;;7.67;3.20;;;5.30;69.30;;;;;;5091508;28;20047;-63
2023/03/28 04:28:23;;;;;;;9.63;3.57;;;5.30;69.30;;;;;;5093571;28;20428;-63
2023/03/28 04:30:59;;;;;;;9.90;3.33;;;5.30;69.30;;;;;;5075816;28;20033;-63
2023/03/28 04:33:32;;;;;;;11.65;3.50;;;5.30;69.30;;;;;;5081271;28;20147;-63
2023/03/28 04:36:00;;;;;;;11.67;3.43;;;5.30;69.40;;;;;;5091055;28;20016;-63
2023/03/28 04:38:30;;;;;;;9.83;3.90;;;5.30;69.40;;;;;;5082231;28;20349;-63
2023/03/28 04:41:02;;;;;;;9.23;3.50;;;5.30;69.50;;;;;;5074049;28;20131;-63
2023/03/28 04:43:46;;;;;;;7.53;3.60;;;5.30;69.50;;;;;;5084883;28;20137;-63
2023/03/28 04:46:12;;;;;;;9.63;3.60;;;5.30;69.50;;;;;;5090624;28;20024;-63
2023/03/28 04:48:38;;;;;;;8.57;3.70;;;5.30;69.60;;;;;;5079432;28;20464;-63
2023/03/28 04:51:05;;;;;;;9.57;3.73;;;5.30;69.60;;;;;;5075317;28;20502;-63
2023/03/28 04:53:31;;;;;;;8.63;3.63;;;5.20;69.60;;;;;;5081623;28;20020;-63
2023/03/28 04:56:17;;;;;;;13.70;3.47;;;5.30;69.60;;;;;;5076526;28;20440;-63
2023/03/28 04:58:43;;;;;;;7.93;3.47;;;5.20;69.60;;;;;;5085702;28;20024;-63
2023/03/28 05:01:09;;;;;;;9.50;3.23;;;5.30;69.60;;;;;;5092188;28;20059;-63
2023/03/28 05:03:55;;;;;;;12.47;4.10;;;5.20;69.60;;;;;;5078402;28;20474;-63
2023/03/28 05:06:21;;;;;;;9.80;3.80;;;5.20;69.60;;;;;;5079391;28;20024;-63
2023/03/28 05:08:47;;;;;;;10.67;3.03;;;5.20;69.70;;;;;;5094033;28;20029;-63
2023/03/28 05:11:13;;;;;;;9.47;3.47;;;5.20;69.70;;;;;;5081526;28;20023;-63
2023/03/28 05:13:39;;;;;;;8.73;3.80;;;5.20;69.70;;;;;;5100709;27;20019;-63
2023/03/28 05:16:14;;;;;;;9.07;3.43;;;5.20;69.70;;;;;;5082678;28;20117;-63
2023/03/28 05:19:10;;;;;;;9.10;3.63;;;5.20;69.70;;;;;;5089817;28;20040;-62
2023/03/28 05:21:54;;;;;;;10.03;3.67;;;5.20;69.70;;;;;;5091818;28;20039;-63
2023/03/28 05:24:20;;;;;;;10.87;3.70;;;5.20;69.70;;;;;;5093845;28;20032;-62
2023/03/28 05:26:46;;;;;;;9.33;4.03;;;5.20;69.70;;;;;;5078679;28;20425;-63
2023/03/28 05:29:12;;;;;;;8.37;3.40;;;5.20;69.70;;;;;;5096737;28;20028;-63
2023/03/28 05:31:43;;;;;;;;;;;5.20;69.70;;;;;;5078795;28;20055;-63
2023/03/28 05:34:17;;;;;;;7.30;3.13;;;5.10;69.70;;;;;;5095622;28;19916;-63
2023/03/28 05:36:45;;;;;;;10.73;3.97;;;5.10;69.70;;;;;;5105372;28;20111;-63
2023/03/28 05:39:20;;;;;;;10.33;4.13;;;5.10;69.70;;;;;;5097741;28;20024;-63
2023/03/28 05:41:46;;;;;;;8.63;3.37;;;5.10;69.70;;;;;;5101642;28;20033;-62
2023/03/28 05:44:12;;;;;;;12.30;3.90;;;5.10;69.70;;;;;;5105806;28;20115;-64
2023/03/28 05:46:58;;;;;;;10.13;3.83;;;5.10;69.70;;;;;;5093738;28;20427;-62
2023/03/28 05:49:23;;;;;;;8.63;3.60;;;5.10;69.70;;;;;;5096740;28;20032;-62
2023/03/28 05:51:51;;;;;;;11.50;3.43;;;5.20;69.80;;;;;;5095290;28;20360;-63
2023/03/28 05:54:17;;;;;;;9.27;3.70;;;5.10;69.70;;;;;;5095922;28;20028;-62
2023/03/28 05:56:43;;;;;;;9.97;3.80;;;5.20;69.80;;;;;;5095647;28;20024;-62
2023/03/28 05:59:09;;;;;;;9.87;3.60;;;5.20;69.70;;;;;;5095998;28;20020;-62
2023/03/28 06:01:38;;;;;;;8.70;3.70;;;5.20;69.70;;;;;;5087737;28;20059;-63
2023/03/28 06:04:05;;;;;;;6.73;2.80;;;5.20;69.70;;;;;;5095536;28;20428;-62
2023/03/28 06:06:34;;;;;;;10.07;3.80;;;5.20;69.70;;;;;;5095708;28;20028;-63
2023/03/28 06:09:02;;;;;;;8.77;3.80;;;5.30;69.70;;;;;;5079090;28;20129;-63
2023/03/28 06:11:31;;;;;;;7.87;3.17;;;5.30;69.60;;;;;;5075778;28;20024;-63
2023/03/28 06:14:07;;;;;;;8.07;3.27;;;5.30;69.50;;;;;;5074430;28;20020;-63
2023/03/28 06:16:34;;;;;;;7.53;3.13;;;5.40;69.50;;;;;;5094841;28;20020;-62
2023/03/28 06:19:00;;;;;;;7.47;3.20;;;5.40;69.50;;;;;;5107516;28;20472;-63
2023/03/28 06:21:26;;;;;;;8.60;2.73;;;5.50;69.40;;;;;;5094882;28;20032;-63
2023/03/28 06:23:53;;;;;;;7.27;3.53;;;5.50;69.40;;;;;;5095509;28;20032;-63
2023/03/28 06:26:25;;;;;;;9.15;3.60;;;5.50;69.30;;;;;;5101064;28;20059;-64
2023/03/28 06:28:50;;;;;;;9.10;3.40;;;5.60;69.20;;;;;;5094813;28;20055;-63
2023/03/28 06:31:21;;;;;;;9.10;3.17;;;5.70;69.00;;;;;;5092887;28;20031;-63
2023/03/28 06:33:47;;;;;;;9.40;2.93;;;5.90;68.80;;;;;;5093639;28;20105;-64
2023/03/28 06:36:17;;;;;;;8.97;3.20;;;6.10;68.40;;;;;;5097440;28;20109;-63
2023/03/28 06:38:43;;;;;;;9.67;4.00;;;6.40;68.10;;;;;;5094959;28;20017;-63
2023/03/28 06:41:10;;;;;;;8.97;3.40;;;6.60;67.40;;;;;;5090866;28;20047;-63
2023/03/28 06:43:35;;;;;;;7.87;3.33;;;6.90;66.80;;;;;;5091155;28;20067;-64
2023/03/28 06:46:06;;;;;;;7.67;3.30;;;7.00;66.40;;;;;;5084191;28;20028;-64
2023/03/28 06:48:33;;;;;;;8.93;3.78;;;7.20;66.20;;;;;;5093721;28;20028;-64
2023/03/28 06:51:21;;;;;;;8.90;3.50;;;7.30;65.90;;;;;;5093772;28;20028;-64
2023/03/28 06:53:47;;;;;;;8.57;3.90;;;7.40;65.60;;;;;;5089816;28;20047;-64
2023/03/28 06:56:15;;;;;;;8.95;3.70;;;7.60;65.30;;;;;;5080370;28;20048;-65
2023/03/28 06:58:41;;;;;;;9.50;4.18;;;7.70;64.90;;;;;;5093201;28;20020;-63
2023/03/28 07:01:10;;;;;;;11.85;3.45;;;7.80;64.60;;;;;;5108102;28;20047;-63
2023/03/28 07:03:47;;;;;;;7.03;3.30;;;7.90;64.40;;;;;;5079099;28;20150;-63
2023/03/28 07:06:18;;;;;;;12.43;4.10;;;7.90;64.20;;;;;;5091584;28;20040;-63
2023/03/28 07:08:44;;;;;;;7.45;3.25;;;8.00;64.20;;;;;;5091946;28;20019;-63
2023/03/28 07:11:10;;;;;;;8.20;3.20;;;8.00;64.10;;;;;;5099754;28;20464;-63
2023/03/28 07:13:38;;;;;;;9.70;3.53;;;8.10;64.10;;;;;;5093102;28;20047;-63
2023/03/28 07:16:10;;;;;;;9.50;3.22;;;8.20;64.10;;;;;;5094050;28;20122;-63
2023/03/28 07:18:37;;;;;;;7.88;3.70;;;8.30;63.90;;;;;;5100476;28;20020;-63
2023/03/28 07:21:15;;;;;;;9.75;3.75;;;8.40;63.70;;;;;;5083586;28;20033;-63
2023/03/28 07:23:41;;;;;;;9.13;3.50;;;8.60;63.30;;;;;;5102119;28;20031;-63
2023/03/28 07:26:11;;;;;;;8.07;2.88;;;8.70;63.20;;;;;;5093227;28;20502;-64
2023/03/28 07:28:37;;;;;;;8.48;3.03;;;8.70;63.00;;;;;;5092416;28;20020;-61
2023/03/28 07:31:04;;;;;;;7.53;2.80;;;8.70;63.00;;;;;;5093225;28;20024;-62
2023/03/28 07:33:34;;;;;;;9.82;3.30;;;8.60;63.00;;;;;;5093340;28;20090;-64
2023/03/28 07:36:15;;;;;;;8.50;2.95;;;8.60;63.10;;;;;;5082841;28;20028;-64
2023/03/28 07:38:44;;;;;;;7.47;3.28;;;8.50;63.20;;;;;;5107056;28;20016;-64
2023/03/28 07:41:10;;;;;;;9.75;3.05;;;8.40;63.40;;;;;;5092864;28;20217;-64
2023/03/28 07:43:38;;;;;;;8.15;3.50;;;8.40;63.50;;;;;;5094165;28;20019;-63
2023/03/28 07:46:07;;;;;;;12.00;3.70;;;8.40;63.50;;;;;;5093625;28;20120;-63
2023/03/28 07:48:34;;;;;;;9.27;3.58;;;8.40;63.50;;;;;;5101443;28;20016;-63
2023/03/28 07:51:02;;;;;;;8.63;3.30;;;8.40;63.40;;;;;;5094683;28;20445;-63
2023/03/28 07:53:28;;;;;;;7.95;3.17;;;8.50;63.30;;;;;;5098175;28;20032;-63
2023/03/28 07:55:55;;;;;;;9.60;3.20;;;8.60;63.00;;;;;;5092647;28;20020;-63
2023/03/28 07:58:23;;;;;;;9.18;3.60;;;8.80;62.80;;;;;;5092133;28;20028;-63
2023/03/28 08:00:49;;;;;;;10.43;4.00;;;9.10;62.30;;;;;;5080326;28;20116;-64
2023/03/28 08:03:40;;;;;;;10.20;3.60;;;9.40;61.70;;;;;;5093321;28;20047;-63
2023/03/28 08:06:09;;;;;;;8.80;3.13;;;9.70;61.20;;;;;;5092989;28;20024;-64
2023/03/28 08:08:38;;;;;;;9.07;3.63;;;10.00;60.70;;;;;;5093462;28;20020;-63
2023/03/28 08:11:20;;;;;;;10.23;3.33;;;10.30;60.20;;;;;;5079028;28;20173;-63
2023/03/28 08:13:46;;;;;;;10.48;3.20;;;10.50;59.70;;;;;;5090559;28;20077;-63
2023/03/28 08:16:19;;;;;;;9.48;3.40;;;10.80;59.30;;;;;;5093027;28;20024;-63
2023/03/28 08:18:45;;;;;;;8.00;3.22;;;10.90;58.90;;;;;;5098606;28;20020;-63
2023/03/28 08:21:11;;;;;;;8.82;3.45;;;11.10;58.70;;;;;;5096086;28;20052;-63
2023/03/28 08:23:37;;;;;;;7.28;2.97;;;11.30;58.40;;;;;;5090212;28;20044;-64
2023/03/28 08:26:27;;;;;;;8.60;3.60;;;11.40;58.00;;;;;;5086780;28;20032;-63
2023/03/28 08:28:57;;;;;;;9.65;3.20;;;11.50;57.80;;;;;;5091827;28;20031;-63
2023/03/28 08:31:26;;;;;;;12.82;3.85;;;11.40;57.60;;;;;;5091637;28;20403;-63
2023/03/28 08:33:56;;;;;;;7.65;3.22;;;11.40;57.50;;;;;;5093971;28;20044;-63
2023/03/28 08:36:27;;;;;;;8.95;3.08;;;11.40;57.60;;;;;;5085550;28;20425;-63
2023/03/28 08:38:59;;;;;;;8.70;3.42;;;11.40;57.40;;;;;;5090863;28;20134;-63
2023/03/28 08:41:28;;;;;;;10.70;2.78;;;11.50;57.20;;;;;;5092035;28;20040;-64
2023/03/28 08:44:10;;;;;;;8.20;2.97;;;11.50;57.10;;;;;;5100240;28;20038;-63
2023/03/28 08:46:40;;;;;;;7.18;3.17;;;11.50;57.00;;;;;;5084995;28;20431;-63
2023/03/28 08:49:13;;;;;;;9.05;2.60;;;11.40;56.90;;;;;;5098091;28;20028;-62
2023/03/28 08:51:42;;;;;;;9.88;3.10;;;11.40;56.80;;;;;;5095032;28;20028;-62
2023/03/28 08:54:23;;;;;;;8.68;2.70;;;11.30;56.80;;;;;;5106924;28;20114;-63
2023/03/28 08:56:55;;;;;;;9.10;3.13;;;11.20;56.70;;;;;;5062241;28;20028;-62
2023/03/28 08:59:42;;;;;;;7.03;2.83;;;11.10;56.60;;;;;;5104799;28;20450;-62
2023/03/28 09:02:25;;;;;;;7.40;2.75;;;11.00;56.40;;;;;;5082097;28;20081;-62
2023/03/28 09:04:53;;;;;;;8.90;2.95;;;11.00;56.50;;;;;;5092715;28;20107;-62
2023/03/28 09:07:35;;;;;;;7.43;2.88;;;11.00;56.50;;;;;;5092878;28;20514;-62
2023/03/28 09:10:02;;;;;;;5.93;2.00;;;11.10;56.10;;;;;;5091916;28;20123;-62
2023/03/28 09:12:42;;;;;;;6.55;2.40;;;11.20;55.90;;;;;;5091939;28;20020;-62
2023/03/28 09:15:15;;;;;;;9.68;2.70;;;11.30;55.50;;;;;;5103556;28;20026;-62
2023/03/28 09:17:58;;;;;;;6.70;2.25;;;11.40;55.10;;;;;;5092498;28;20368;-63
2023/03/28 09:20:30;;;;;;;8.02;2.33;;;11.40;54.70;;;;;;5071540;28;20409;-63
2023/03/28 09:23:33;;;;;;;7.65;2.45;;;11.40;54.80;;;;;;5089109;28;20067;-62
2023/03/28 09:26:38;;;;;;;9.52;2.35;;;11.60;54.50;;;;;;5083042;28;20036;-61
2023/03/28 09:29:16;;;;;;;7.05;2.42;;;11.80;54.00;;;;;;5093645;28;20088;-62
2023/03/28 09:31:54;;;;;;;6.90;2.28;;;11.80;53.70;;;;;;5101787;28;20039;-62
2023/03/28 09:34:27;;;;;;;8.38;2.33;;;11.70;53.60;;;;;;5096000;28;20062;-62
2023/03/28 09:37:10;;;;;;;6.78;2.45;;;11.60;53.50;;;;;;5110032;28;20024;-62
2023/03/28 09:39:44;;;;;;;6.25;2.00;;;11.70;53.30;;;;;;5096306;28;20035;-63
2023/03/28 09:42:30;;;;;;;9.35;2.25;;;11.80;52.90;;;;;;5095939;28;20042;-63
2023/03/28 09:45:40;;;;;;;6.38;1.95;;;11.60;52.20;;;;;;5086459;28;20041;-63
2023/03/28 09:48:36;;;;;;;4.68;1.88;;;11.40;52.60;;;;;;5097343;28;20039;-63
2023/03/28 09:51:13;;;;;;;7.95;2.60;;;11.60;52.60;;;;;;5096114;28;20390;-63
2023/03/28 09:53:39;;;;;;;7.25;2.45;;;11.80;52.30;;;;;;5095934;28;20024;-63
2023/03/28 09:56:27;;;;;;;7.07;2.30;;;12.00;52.00;;;;;;5095076;28;20019;-63
2023/03/28 09:59:00;;;;;;;7.97;2.33;;;12.20;51.30;;;;;;5096133;28;20020;-63
2023/03/28 10:01:44;;;;;;;9.77;2.40;;;12.40;51.10;;;;;;5095929;28;20020;-63
2023/03/28 10:04:36;;;;;;;6.18;2.17;;;12.50;50.50;;;;;;5095727;28;20139;-63
2023/03/28 10:07:43;;;;;;;5.72;2.00;;;12.60;50.30;;;;;;5094119;28;20052;-63
2023/03/28 10:10:59;;;;;;;8.07;2.15;;;12.40;49.90;;;;;;5100973;28;20044;-63
2023/03/28 10:13:25;;;;;;;6.93;2.65;;;12.30;50.00;;;;;;5095512;28;20036;-63
2023/03/28 10:15:55;;;;;;;7.72;2.38;;;12.10;50.00;;;;;;5093183;28;20043;-63
2023/03/28 10:18:41;;;;;;;5.07;2.22;;;12.10;50.10;;;;;;5088392;28;20043;-63
2023/03/28 10:21:31;;;;;;;5.90;2.30;;;12.00;49.90;;;;;;5084721;28;20492;-62
2023/03/28 10:24:14;;;;;;;8.13;2.65;;;11.90;49.80;;;;;;5086126;28;20138;-62
2023/03/28 10:26:43;;;;;;;6.93;2.35;;;11.80;49.60;;;;;;5091569;28;20032;-62
2023/03/28 10:29:12;;;;;;;6.90;2.20;;;11.90;49.70;;;;;;5095597;28;20042;-62
2023/03/28 10:31:38;;;;;;;6.68;2.38;;;11.90;49.50;;;;;;5095297;28;20052;-63
2023/03/28 10:34:30;;;;;;;6.35;2.22;;;12.00;49.30;;;;;;5095871;28;20044;-62
2023/03/28 10:37:24;;;;;;;6.63;2.25;;;12.00;49.10;;;;;;5096411;28;20051;-62
2023/03/28 10:40:19;;;;;;;5.88;2.13;;;12.00;48.80;;;;;;5079376;28;20024;-62
2023/03/28 10:43:13;;;;;;;6.47;2.40;;;12.00;48.70;;;;;;5095679;28;20025;-62
2023/03/28 10:45:51;;;;;;;7.55;2.80;;;11.90;48.70;;;;;;5094416;28;20487;-63
2023/03/28 10:48:35;;;;;;;7.35;2.45;;;11.90;48.80;;;;;;5095064;28;20028;-63
2023/03/28 10:51:13;;;;;;;7.88;2.80;;;12.00;48.70;;;;;;5094442;28;20031;-63
2023/03/28 10:53:57;;;;;;;7.43;2.42;;;12.00;48.50;;;;;;5094782;28;20024;-62
2023/03/28 10:56:51;;;;;;;7.18;2.58;;;12.00;48.20;;;;;;5094961;28;20020;-63
2023/03/28 10:59:52;;;;;;;6.82;2.30;;;11.90;48.20;;;;;;5074846;28;20020;-64
2023/03/28 11:02:35;;;;;;;5.97;2.00;;;11.80;48.50;;;;;;5092081;28;20032;-63
2023/03/28 11:05:39;;;;;;;8.00;2.38;;;11.70;48.30;;;;;;5101940;28;20086;-64
2023/03/28 11:08:10;;;;;;;5.38;2.00;;;11.70;48.30;;;;;;5084929;28;20032;-63
2023/03/28 11:10:58;;;;;;;6.78;2.25;;;11.70;48.50;;;;;;5091567;28;20024;-63
2023/03/28 11:13:57;;;;;;;7.78;2.80;;;11.60;48.40;;;;;;5094267;28;20043;-63
2023/03/28 11:16:39;;;;;;;6.65;2.00;;;11.60;48.20;;;;;;5088630;28;20115;-63
2023/03/28 11:19:57;;;;;;;6.45;2.30;;;11.50;48.40;;;;;;5092541;28;20109;-63
2023/03/28 11:22:59;;;;;;;8.75;2.30;;;11.50;48.40;;;;;;5079328;28;20445;-63
2023/03/28 11:25:41;;;;;;;7.20;2.22;;;11.50;48.50;;;;;;5093386;28;20020;-64
2023/03/28 11:28:31;;;;;;;6.13;2.33;;;11.50;48.50;;;;;;5093649;28;20047;-63
2023/03/28 11:31:08;;;;;;;9.65;2.30;;;11.50;48.40;;;;;;5093945;28;20023;-64
2023/03/28 11:33:49;;;;;;;8.00;2.28;;;11.60;48.30;;;;;;5074148;28;20463;-64
2023/03/28 11:36:44;;;;;;;6.72;1.95;;;11.60;48.10;;;;;;5094829;28;20035;-64
2023/03/28 11:39:20;;;;;;;5.40;2.00;;;11.60;48.10;;;;;;5105759;28;20036;-64
2023/03/28 11:41:49;;;;;;;6.78;2.35;;;11.50;48.10;;;;;;5080693;28;20028;-64
2023/03/28 11:44:32;;;;;;;5.82;1.92;;;11.50;48.20;;;;;;5092425;28;20020;-63
2023/03/28 11:47:12;;;;;;;7.03;2.10;;;11.50;48.30;;;;;;5076869;28;20111;-64
2023/03/28 11:49:51;;;;;;;10.32;2.20;;;11.50;48.10;;;;;;5094234;28;20024;-64
2023/03/28 11:53:15;;;;;;;6.28;1.80;;;11.60;48.20;;;;;;5085066;28;20070;-64
2023/03/28 11:56:15;;;;;;;5.75;2.33;;;11.80;48.00;;;;;;5090917;28;20087;-64
2023/03/28 11:59:25;;;;;;;6.60;2.05;;;12.00;47.40;;;;;;5090580;28;20036;-64
2023/03/28 12:02:28;;;;;;;6.03;1.98;;;12.10;47.30;;;;;;5093391;28;20085;-64
2023/03/28 12:04:59;;;;;;;7.20;2.20;;;12.10;47.10;;;;;;5093761;28;20028;-64
2023/03/28 12:07:37;;;;;;;7.65;2.10;;;12.00;47.20;;;;;;5093739;28;20093;-65
2023/03/28 12:10:35;;;;;;;6.40;1.85;;;12.00;47.40;;;;;;5089960;28;20321;-64
2023/03/28 12:13:10;;;;;;;8.57;2.33;;;12.10;47.50;;;;;;5106866;28;20108;-64
2023/03/28 12:15:57;;;;;;;7.85;2.72;;;12.10;47.50;;;;;;5096145;28;20035;-63
2023/03/28 12:18:31;;;;;;;6.13;2.35;;;12.00;47.20;;;;;;5083351;28;20103;-62
2023/03/28 12:21:20;;;;;;;7.50;2.40;;;12.00;47.30;;;;;;5091055;28;20043;-62
2023/03/28 12:23:50;;;;;;;8.05;2.17;;;12.10;47.20;;;;;;5086623;28;20024;-62
2023/03/28 12:26:56;;;;;;;6.70;1.98;;;12.10;47.10;;;;;;5080289;28;20031;-62
2023/03/28 12:29:36;;;;;;;8.43;2.45;;;12.20;47.00;;;;;;5075684;28;20089;-62
2023/03/28 12:32:23;;;;;;;7.00;2.47;;;12.10;46.70;;;;;;5089345;28;20032;-63
2023/03/28 12:35:11;;;;;;;6.30;2.08;;;12.20;46.70;;;;;;5093169;28;20094;-63
2023/03/28 12:37:57;;;;;;;5.25;2.17;;;12.30;47.00;;;;;;5090269;28;20021;-63
2023/03/28 12:40:29;;;;;;;6.68;2.25;;;12.30;46.80;;;;;;5093183;28;20060;-63
2023/03/28 12:42:57;;;;;;;6.88;2.17;;;12.30;46.80;;;;;;5090759;28;20027;-63
2023/03/28 12:45:38;;;;;;;5.57;2.30;;;12.40;46.70;;;;;;5089788;28;20028;-63
2023/03/28 12:48:14;;;;;;;6.13;2.42;;;12.30;46.40;;;;;;5090595;28;20380;-63
2023/03/28 12:50:48;;;;;;;6.10;2.50;;;12.20;46.50;;;;;;5091242;28;20037;-62
2023/03/28 12:53:15;;;;;;;9.60;2.65;;;12.20;46.50;;;;;;5091384;28;20330;-62
2023/03/28 12:55:50;;;;;;;6.15;2.38;;;12.20;46.50;;;;;;5092739;28;20020;-62
2023/03/28 12:58:29;;;;;;;8.80;2.50;;;12.10;46.40;;;;;;5090774;28;20019;-63
2023/03/28 13:01:06;;;;;;;7.50;2.85;;;12.00;46.40;;;;;;5082383;28;20043;-62
2023/03/28 13:04:12;;;;;;;9.60;3.30;;;12.00;46.50;;;;;;5090127;28;20177;-63
2023/03/28 13:07:33;;;;;;;7.00;2.97;;;11.90;46.40;;;;;;5069794;28;20334;-62
2023/03/28 13:10:14;;;;;;;8.93;3.15;;;11.80;46.80;;;;;;5089801;28;20055;-62
2023/03/28 13:13:09;;;;;;;5.55;2.55;;;11.70;47.00;;;;;;5090800;28;20109;-63
2023/03/28 13:16:07;;;;;;;9.32;3.25;;;11.70;47.00;;;;;;5099867;28;20096;-62
2023/03/28 13:18:33;;;;;;;8.15;2.47;;;11.80;47.10;;;;;;5056782;28;20097;-63
2023/03/28 13:21:03;;;;;;;8.65;2.58;;;11.90;47.00;;;;;;5097469;28;20032;-63
2023/03/28 13:23:32;;;;;;;9.45;3.28;;;11.90;46.90;;;;;;5091001;28;20353;-63
2023/03/28 13:26:03;;;;;;;8.25;2.60;;;12.00;46.70;;;;;;5087990;28;20110;-62
2023/03/28 13:28:29;;;;;;;9.27;3.05;;;12.10;46.50;;;;;;5096693;28;20032;-62
2023/03/28 13:31:08;;;;;;;7.03;2.50;;;12.10;46.50;;;;;;5079263;28;20035;-62
2023/03/28 13:33:44;;;;;;;12.07;2.97;;;12.20;46.30;;;;;;5094970;28;20020;-63
2023/03/28 13:36:16;;;;;;;9.45;2.78;;;12.10;46.30;;;;;;5096834;28;20497;-62
2023/03/28 13:38:45;;;;;;;6.82;2.65;;;12.10;46.30;;;;;;5093734;28;20032;-62
2023/03/28 13:41:48;;;;;;;9.52;3.28;;;12.00;46.30;;;;;;5096238;28;20080;-63
2023/03/28 13:44:20;;;;;;;7.15;2.55;;;11.90;46.10;;;;;;5091532;27;20032;-62